首页
METAR-TAF:

METAR-TAF

机场 :

Diepholz, 德国

纬度: 52-35N, 经度: 008-21E, 海拔: 39米

当前天气观测

该预报发布于2小时和12分钟前的13:20 UTC
风速7节,风向南转西南
温度 29°C
湿度 33%
气压 1013 hPa
能见度10公里或以上
散云层高于7000英尺, 塔状积云.
多云层高于30000英尺

METAR: ETND 181320Z 20007KT 9999 SCT070TCU BKN300 29/11 Q1013 BLU+

时间: 17:32 (15:32 UTC)

预报

该预报发布于2小时和7分钟前的13:25 UTC
预报有效从18日的 13点(UTC)到 18日的 20点(UTC)
风速7节,风向南转南东
能见度10公里或以上
少量云层高于6000英尺
多云层高于24000英尺
短暂存在
从 18日的 13点(UTC)到 18日的 17点(UTC)
风速10节,风向多变
能见度10公里或以上
散云层高于5000英尺, 积雨云.
多云层高于19000英尺
几率 30%
从 18日的 13点(UTC)到 18日的 17点(UTC)
风速15节,风向多变,有时为25节阵风
能見度: 1330
多云层高于5000英尺, 积雨云.
多云层高于18000英尺
雷暴, 雨

TAF: ETND 181325Z 1813/1820 15007KT 9999 NSW FEW060 BKN240 TEMPO 1813/1817 VRB10KT 9999 NSW SCT050CB BKN190 PROB30 1813/1817 VRB15G25KT 5000 TSRA BKN050CB BKN180 CANCEL 1330 BY ETGL

超过4000个机场的气象观测和天气预报(METAR&TAF报告)。

可查询的气象台以黄色和红色小点在地图上表示。

将鼠标移到小点上方,可查看气象台名称。

然后点击查看天气观测和预报。

如需切换地图:点击带黑十字的绿色按钮放大地图;点击带横线的绿色按钮缩小地图;或者点击绿色箭头查看邻近地区的地图。


METAR-TAF: